sensor_id;sensor_type;location;lat;lon;timestamp;P1;durP1;ratioP1;P2;durP2;ratioP2
28170;SDS011;15458;53.346;-1.688;2023-07-30T00:02:04;16.73;;;2.45;;
28170;SDS011;15458;53.346;-1.688;2023-07-30T00:04:29;17.83;;;2.95;;
28170;SDS011;15458;53.346;-1.688;2023-07-30T00:06:55;13.98;;;3.28;;
28170;SDS011;15458;53.346;-1.688;2023-07-30T00:09:21;10.73;;;2.28;;
28170;SDS011;15458;53.346;-1.688;2023-07-30T00:11:46;20.65;;;2.90;;
28170;SDS011;15458;53.346;-1.688;2023-07-30T00:14:12;19.17;;;3.17;;
28170;SDS011;15458;53.346;-1.688;2023-07-30T00:16:37;12.45;;;2.35;;
28170;SDS011;15458;53.346;-1.688;2023-07-30T00:19:03;18.83;;;2.63;;
28170;SDS011;15458;53.346;-1.688;2023-07-30T00:21:29;15.95;;;2.72;;
28170;SDS011;15458;53.346;-1.688;2023-07-30T00:23:55;19.30;;;2.50;;
28170;SDS011;15458;53.346;-1.688;2023-07-30T00:26:20;12.20;;;2.25;;
28170;SDS011;15458;53.346;-1.688;2023-07-30T00:28:46;20.55;;;2.72;;
28170;SDS011;15458;53.346;-1.688;2023-07-30T00:31:11;17.67;;;3.00;;
28170;SDS011;15458;53.346;-1.688;2023-07-30T00:33:37;20.10;;;2.30;;
28170;SDS011;15458;53.346;-1.688;2023-07-30T00:36:03;16.88;;;3.35;;
28170;SDS011;15458;53.346;-1.688;2023-07-30T00:38:28;16.90;;;3.47;;
28170;SDS011;15458;53.346;-1.688;2023-07-30T00:40:54;17.92;;;2.88;;
28170;SDS011;15458;53.346;-1.688;2023-07-30T00:43:20;20.80;;;2.50;;
28170;SDS011;15458;53.346;-1.688;2023-07-30T00:45:46;18.48;;;2.70;;
28170;SDS011;15458;53.346;-1.688;2023-07-30T00:48:12;18.65;;;3.25;;
28170;SDS011;15458;53.346;-1.688;2023-07-30T00:50:39;26.45;;;5.63;;
28170;SDS011;15458;53.346;-1.688;2023-07-30T00:53:06;14.82;;;3.20;;
28170;SDS011;15458;53.346;-1.688;2023-07-30T00:55:34;19.02;;;3.25;;
28170;SDS011;15458;53.346;-1.688;2023-07-30T00:58:00;20.75;;;3.33;;
28170;SDS011;15458;53.346;-1.688;2023-07-30T01:00:27;16.40;;;2.90;;
28170;SDS011;15458;53.346;-1.688;2023-07-30T01:02:55;17.20;;;3.42;;
28170;SDS011;15458;53.346;-1.688;2023-07-30T01:05:21;14.18;;;2.78;;
28170;SDS011;15458;53.346;-1.688;2023-07-30T01:07:46;10.73;;;2.03;;
28170;SDS011;15458;53.346;-1.688;2023-07-30T01:10:12;20.00;;;3.10;;
28170;SDS011;15458;53.346;-1.688;2023-07-30T01:12:38;20.98;;;3.50;;
28170;SDS011;15458;53.346;-1.688;2023-07-30T01:15:05;14.75;;;2.67;;
28170;SDS011;15458;53.346;-1.688;2023-07-30T01:17:32;15.75;;;3.13;;
28170;SDS011;15458;53.346;-1.688;2023-07-30T01:19:58;19.33;;;2.83;;
28170;SDS011;15458;53.346;-1.688;2023-07-30T01:22:24;14.45;;;2.92;;
28170;SDS011;15458;53.346;-1.688;2023-07-30T01:24:50;15.68;;;2.92;;
28170;SDS011;15458;53.346;-1.688;2023-07-30T01:27:21;18.75;;;2.65;;
28170;SDS011;15458;53.346;-1.688;2023-07-30T01:29:54;19.75;;;2.85;;
28170;SDS011;15458;53.346;-1.688;2023-07-30T01:32:26;13.57;;;2.33;;
28170;SDS011;15458;53.346;-1.688;2023-07-30T01:34:53;22.60;;;4.22;;
28170;SDS011;15458;53.346;-1.688;2023-07-30T01:37:20;13.32;;;2.53;;
28170;SDS011;15458;53.346;-1.688;2023-07-30T01:39:47;16.42;;;2.38;;
28170;SDS011;15458;53.346;-1.688;2023-07-30T01:42:14;18.38;;;2.83;;
28170;SDS011;15458;53.346;-1.688;2023-07-30T01:44:40;17.85;;;2.65;;
28170;SDS011;15458;53.346;-1.688;2023-07-30T01:47:06;19.75;;;3.15;;
28170;SDS011;15458;53.346;-1.688;2023-07-30T01:49:31;15.68;;;2.35;;
28170;SDS011;15458;53.346;-1.688;2023-07-30T01:51:57;17.35;;;2.95;;
28170;SDS011;15458;53.346;-1.688;2023-07-30T01:54:22;17.05;;;2.30;;
28170;SDS011;15458;53.346;-1.688;2023-07-30T01:56:48;13.05;;;3.15;;
28170;SDS011;15458;53.346;-1.688;2023-07-30T01:59:14;11.52;;;1.90;;
28170;SDS011;15458;53.346;-1.688;2023-07-30T02:01:40;7.05;;;1.80;;
28170;SDS011;15458;53.346;-1.688;2023-07-30T02:04:06;15.18;;;1.60;;
28170;SDS011;15458;53.346;-1.688;2023-07-30T02:06:32;12.98;;;2.05;;
28170;SDS011;15458;53.346;-1.688;2023-07-30T02:08:57;7.07;;;1.67;;
28170;SDS011;15458;53.346;-1.688;2023-07-30T02:11:23;5.43;;;1.40;;
28170;SDS011;15458;53.346;-1.688;2023-07-30T02:13:49;9.50;;;1.42;;
28170;SDS011;15458;53.346;-1.688;2023-07-30T02:16:14;11.25;;;1.33;;
28170;SDS011;15458;53.346;-1.688;2023-07-30T02:18:40;13.93;;;1.92;;
28170;SDS011;15458;53.346;-1.688;2023-07-30T02:21:05;13.52;;;2.45;;
28170;SDS011;15458;53.346;-1.688;2023-07-30T02:23:31;8.23;;;1.55;;
28170;SDS011;15458;53.346;-1.688;2023-07-30T02:25:57;9.18;;;1.70;;
28170;SDS011;15458;53.346;-1.688;2023-07-30T02:28:23;8.77;;;1.90;;
28170;SDS011;15458;53.346;-1.688;2023-07-30T02:30:48;15.52;;;2.30;;
28170;SDS011;15458;53.346;-1.688;2023-07-30T02:33:14;10.15;;;1.85;;
28170;SDS011;15458;53.346;-1.688;2023-07-30T02:35:42;12.63;;;1.90;;
28170;SDS011;15458;53.346;-1.688;2023-07-30T02:38:08;12.55;;;2.00;;
28170;SDS011;15458;53.346;-1.688;2023-07-30T02:40:34;11.23;;;1.85;;
28170;SDS011;15458;53.346;-1.688;2023-07-30T02:43:00;13.02;;;1.75;;
28170;SDS011;15458;53.346;-1.688;2023-07-30T02:45:25;13.70;;;2.13;;
28170;SDS011;15458;53.346;-1.688;2023-07-30T02:47:51;11.60;;;1.98;;
28170;SDS011;15458;53.346;-1.688;2023-07-30T02:50:17;10.75;;;1.90;;
28170;SDS011;15458;53.346;-1.688;2023-07-30T02:52:42;8.43;;;2.20;;
28170;SDS011;15458;53.346;-1.688;2023-07-30T02:55:08;11.98;;;1.67;;
28170;SDS011;15458;53.346;-1.688;2023-07-30T02:57:34;8.73;;;1.60;;
28170;SDS011;15458;53.346;-1.688;2023-07-30T02:59:59;5.53;;;1.30;;
28170;SDS011;15458;53.346;-1.688;2023-07-30T03:02:25;13.02;;;1.88;;
28170;SDS011;15458;53.346;-1.688;2023-07-30T03:04:51;13.68;;;2.30;;
28170;SDS011;15458;53.346;-1.688;2023-07-30T03:07:16;11.68;;;1.98;;
28170;SDS011;15458;53.346;-1.688;2023-07-30T03:09:43;8.68;;;1.52;;
28170;SDS011;15458;53.346;-1.688;2023-07-30T03:12:09;10.20;;;1.80;;
28170;SDS011;15458;53.346;-1.688;2023-07-30T03:14:34;6.18;;;1.52;;
28170;SDS011;15458;53.346;-1.688;2023-07-30T03:17:00;8.00;;;1.80;;
28170;SDS011;15458;53.346;-1.688;2023-07-30T03:19:25;8.55;;;1.80;;
28170;SDS011;15458;53.346;-1.688;2023-07-30T03:21:51;14.85;;;1.95;;
28170;SDS011;15458;53.346;-1.688;2023-07-30T03:24:17;8.32;;;1.60;;
28170;SDS011;15458;53.346;-1.688;2023-07-30T03:26:42;7.53;;;1.65;;
28170;SDS011;15458;53.346;-1.688;2023-07-30T03:29:08;9.05;;;1.85;;
28170;SDS011;15458;53.346;-1.688;2023-07-30T03:31:34;6.72;;;1.60;;
28170;SDS011;15458;53.346;-1.688;2023-07-30T03:33:59;5.65;;;1.60;;
28170;SDS011;15458;53.346;-1.688;2023-07-30T03:36:25;14.23;;;1.88;;
28170;SDS011;15458;53.346;-1.688;2023-07-30T03:38:50;13.68;;;1.65;;
28170;SDS011;15458;53.346;-1.688;2023-07-30T03:41:16;12.10;;;1.75;;
28170;SDS011;15458;53.346;-1.688;2023-07-30T03:43:42;7.78;;;1.80;;
28170;SDS011;15458;53.346;-1.688;2023-07-30T03:46:07;8.38;;;1.50;;
28170;SDS011;15458;53.346;-1.688;2023-07-30T03:48:33;13.30;;;1.90;;
28170;SDS011;15458;53.346;-1.688;2023-07-30T03:50:59;9.55;;;1.52;;
28170;SDS011;15458;53.346;-1.688;2023-07-30T03:53:24;9.30;;;1.42;;
28170;SDS011;15458;53.346;-1.688;2023-07-30T03:55:50;8.85;;;2.33;;
28170;SDS011;15458;53.346;-1.688;2023-07-30T03:58:16;5.85;;;1.30;;
28170;SDS011;15458;53.346;-1.688;2023-07-30T04:00:41;10.70;;;1.50;;
28170;SDS011;15458;53.346;-1.688;2023-07-30T04:03:07;9.60;;;1.27;;
28170;SDS011;15458;53.346;-1.688;2023-07-30T04:05:32;7.43;;;1.38;;
28170;SDS011;15458;53.346;-1.688;2023-07-30T04:07:58;10.02;;;1.15;;
28170;SDS011;15458;53.346;-1.688;2023-07-30T04:10:24;4.30;;;1.10;;
28170;SDS011;15458;53.346;-1.688;2023-07-30T04:12:49;4.75;;;1.02;;
28170;SDS011;15458;53.346;-1.688;2023-07-30T04:15:15;6.43;;;1.63;;
28170;SDS011;15458;53.346;-1.688;2023-07-30T04:17:41;7.20;;;1.88;;
28170;SDS011;15458;53.346;-1.688;2023-07-30T04:20:07;8.55;;;1.42;;
28170;SDS011;15458;53.346;-1.688;2023-07-30T04:22:34;9.10;;;1.30;;
28170;SDS011;15458;53.346;-1.688;2023-07-30T04:25:00;7.30;;;1.13;;
28170;SDS011;15458;53.346;-1.688;2023-07-30T04:27:26;13.20;;;1.40;;
28170;SDS011;15458;53.346;-1.688;2023-07-30T04:29:52;6.20;;;1.42;;
28170;SDS011;15458;53.346;-1.688;2023-07-30T04:32:18;4.72;;;1.00;;
28170;SDS011;15458;53.346;-1.688;2023-07-30T04:34:43;10.60;;;1.35;;
28170;SDS011;15458;53.346;-1.688;2023-07-30T04:37:09;3.92;;;1.10;;
28170;SDS011;15458;53.346;-1.688;2023-07-30T04:39:35;5.68;;;1.10;;
28170;SDS011;15458;53.346;-1.688;2023-07-30T04:42:01;7.22;;;1.20;;
28170;SDS011;15458;53.346;-1.688;2023-07-30T04:44:27;4.63;;;1.00;;
28170;SDS011;15458;53.346;-1.688;2023-07-30T04:46:53;3.30;;;0.88;;
28170;SDS011;15458;53.346;-1.688;2023-07-30T04:49:19;9.48;;;1.23;;
28170;SDS011;15458;53.346;-1.688;2023-07-30T04:51:44;5.20;;;1.02;;
28170;SDS011;15458;53.346;-1.688;2023-07-30T04:54:10;5.28;;;1.00;;
28170;SDS011;15458;53.346;-1.688;2023-07-30T04:56:36;2.92;;;1.33;;
28170;SDS011;15458;53.346;-1.688;2023-07-30T04:59:02;5.35;;;1.05;;
28170;SDS011;15458;53.346;-1.688;2023-07-30T05:01:28;5.68;;;1.05;;
28170;SDS011;15458;53.346;-1.688;2023-07-30T05:03:53;11.95;;;1.40;;
28170;SDS011;15458;53.346;-1.688;2023-07-30T05:06:19;5.40;;;1.05;;
28170;SDS011;15458;53.346;-1.688;2023-07-30T05:08:45;8.73;;;1.13;;
28170;SDS011;15458;53.346;-1.688;2023-07-30T05:11:10;6.70;;;1.45;;
28170;SDS011;15458;53.346;-1.688;2023-07-30T05:13:36;4.32;;;1.10;;
28170;SDS011;15458;53.346;-1.688;2023-07-30T05:16:01;9.80;;;1.40;;
28170;SDS011;15458;53.346;-1.688;2023-07-30T05:18:27;9.30;;;1.08;;
28170;SDS011;15458;53.346;-1.688;2023-07-30T05:20:54;5.00;;;0.90;;
28170;SDS011;15458;53.346;-1.688;2023-07-30T05:23:19;6.72;;;1.10;;
28170;SDS011;15458;53.346;-1.688;2023-07-30T05:25:45;4.03;;;0.90;;
28170;SDS011;15458;53.346;-1.688;2023-07-30T05:28:11;5.28;;;1.05;;
28170;SDS011;15458;53.346;-1.688;2023-07-30T05:30:37;11.82;;;1.45;;
28170;SDS011;15458;53.346;-1.688;2023-07-30T05:33:02;5.15;;;1.17;;
28170;SDS011;15458;53.346;-1.688;2023-07-30T05:35:28;4.85;;;1.08;;
28170;SDS011;15458;53.346;-1.688;2023-07-30T05:37:54;9.95;;;2.72;;
28170;SDS011;15458;53.346;-1.688;2023-07-30T05:40:20;9.85;;;1.50;;
28170;SDS011;15458;53.346;-1.688;2023-07-30T05:42:46;4.32;;;1.20;;
28170;SDS011;15458;53.346;-1.688;2023-07-30T05:45:12;5.40;;;1.15;;
28170;SDS011;15458;53.346;-1.688;2023-07-30T05:47:38;2.53;;;0.90;;
28170;SDS011;15458;53.346;-1.688;2023-07-30T05:50:04;8.95;;;1.17;;
28170;SDS011;15458;53.346;-1.688;2023-07-30T05:52:30;7.60;;;1.48;;
28170;SDS011;15458;53.346;-1.688;2023-07-30T05:54:55;7.88;;;1.27;;
28170;SDS011;15458;53.346;-1.688;2023-07-30T05:57:21;6.38;;;1.17;;
28170;SDS011;15458;53.346;-1.688;2023-07-30T05:59:47;6.95;;;1.15;;
28170;SDS011;15458;53.346;-1.688;2023-07-30T06:02:12;6.57;;;1.20;;
28170;SDS011;15458;53.346;-1.688;2023-07-30T06:04:38;6.70;;;1.17;;
28170;SDS011;15458;53.346;-1.688;2023-07-30T06:07:04;11.95;;;1.10;;
28170;SDS011;15458;53.346;-1.688;2023-07-30T06:09:29;11.15;;;1.23;;
28170;SDS011;15458;53.346;-1.688;2023-07-30T06:11:56;11.63;;;1.38;;
28170;SDS011;15458;53.346;-1.688;2023-07-30T06:14:22;8.65;;;1.45;;
28170;SDS011;15458;53.346;-1.688;2023-07-30T06:16:49;8.93;;;1.17;;
28170;SDS011;15458;53.346;-1.688;2023-07-30T06:19:14;7.40;;;1.35;;
28170;SDS011;15458;53.346;-1.688;2023-07-30T06:21:40;11.32;;;1.65;;
28170;SDS011;15458;53.346;-1.688;2023-07-30T06:24:06;3.20;;;1.25;;
28170;SDS011;15458;53.346;-1.688;2023-07-30T06:26:31;9.15;;;1.58;;
28170;SDS011;15458;53.346;-1.688;2023-07-30T06:28:57;6.25;;;1.02;;
28170;SDS011;15458;53.346;-1.688;2023-07-30T06:31:23;8.77;;;1.30;;
28170;SDS011;15458;53.346;-1.688;2023-07-30T06:33:49;8.73;;;1.27;;
28170;SDS011;15458;53.346;-1.688;2023-07-30T06:36:14;8.02;;;1.23;;
28170;SDS011;15458;53.346;-1.688;2023-07-30T06:38:40;8.20;;;1.60;;
28170;SDS011;15458;53.346;-1.688;2023-07-30T06:41:05;8.10;;;1.20;;
28170;SDS011;15458;53.346;-1.688;2023-07-30T06:43:31;6.80;;;1.00;;
28170;SDS011;15458;53.346;-1.688;2023-07-30T06:45:57;4.80;;;1.10;;
28170;SDS011;15458;53.346;-1.688;2023-07-30T06:48:23;6.22;;;1.67;;
28170;SDS011;15458;53.346;-1.688;2023-07-30T06:50:48;14.57;;;1.70;;
28170;SDS011;15458;53.346;-1.688;2023-07-30T06:53:14;9.43;;;1.60;;
28170;SDS011;15458;53.346;-1.688;2023-07-30T06:55:40;8.27;;;1.45;;
28170;SDS011;15458;53.346;-1.688;2023-07-30T06:58:05;8.63;;;1.42;;
28170;SDS011;15458;53.346;-1.688;2023-07-30T07:00:31;11.05;;;1.60;;
28170;SDS011;15458;53.346;-1.688;2023-07-30T07:02:57;9.50;;;1.70;;
28170;SDS011;15458;53.346;-1.688;2023-07-30T07:05:22;7.53;;;1.25;;
28170;SDS011;15458;53.346;-1.688;2023-07-30T07:07:48;6.75;;;0.98;;
28170;SDS011;15458;53.346;-1.688;2023-07-30T07:10:13;6.47;;;1.30;;
28170;SDS011;15458;53.346;-1.688;2023-07-30T07:12:40;9.93;;;2.17;;
28170;SDS011;15458;53.346;-1.688;2023-07-30T07:15:06;8.68;;;1.30;;
28170;SDS011;15458;53.346;-1.688;2023-07-30T07:17:32;12.68;;;1.55;;
28170;SDS011;15458;53.346;-1.688;2023-07-30T07:19:57;5.57;;;1.13;;
28170;SDS011;15458;53.346;-1.688;2023-07-30T07:22:23;6.88;;;1.60;;
28170;SDS011;15458;53.346;-1.688;2023-07-30T07:24:49;5.25;;;1.40;;
28170;SDS011;15458;53.346;-1.688;2023-07-30T07:27:17;9.73;;;1.70;;
28170;SDS011;15458;53.346;-1.688;2023-07-30T07:29:48;6.03;;;1.38;;
28170;SDS011;15458;53.346;-1.688;2023-07-30T07:32:13;5.07;;;1.17;;
28170;SDS011;15458;53.346;-1.688;2023-07-30T07:34:39;5.30;;;1.00;;
28170;SDS011;15458;53.346;-1.688;2023-07-30T07:37:05;12.18;;;1.65;;
28170;SDS011;15458;53.346;-1.688;2023-07-30T07:39:30;10.57;;;2.28;;
28170;SDS011;15458;53.346;-1.688;2023-07-30T07:41:58;9.43;;;1.50;;
28170;SDS011;15458;53.346;-1.688;2023-07-30T07:44:24;3.85;;;1.10;;
28170;SDS011;15458;53.346;-1.688;2023-07-30T07:46:49;8.38;;;1.30;;
28170;SDS011;15458;53.346;-1.688;2023-07-30T07:49:15;10.18;;;1.52;;
28170;SDS011;15458;53.346;-1.688;2023-07-30T07:51:41;8.27;;;1.10;;
28170;SDS011;15458;53.346;-1.688;2023-07-30T07:54:06;7.63;;;1.42;;
28170;SDS011;15458;53.346;-1.688;2023-07-30T07:56:32;4.93;;;1.20;;
28170;SDS011;15458;53.346;-1.688;2023-07-30T07:58:58;11.45;;;1.20;;
28170;SDS011;15458;53.346;-1.688;2023-07-30T08:01:24;12.88;;;1.33;;
28170;SDS011;15458;53.346;-1.688;2023-07-30T08:03:50;3.83;;;1.20;;
28170;SDS011;15458;53.346;-1.688;2023-07-30T08:06:16;6.38;;;1.63;;
28170;SDS011;15458;53.346;-1.688;2023-07-30T08:08:41;5.15;;;1.23;;
28170;SDS011;15458;53.346;-1.688;2023-07-30T08:11:07;3.70;;;1.15;;
28170;SDS011;15458;53.346;-1.688;2023-07-30T08:13:33;4.32;;;1.02;;
28170;SDS011;15458;53.346;-1.688;2023-07-30T08:16:00;5.45;;;1.20;;
28170;SDS011;15458;53.346;-1.688;2023-07-30T08:18:26;7.20;;;1.17;;
28170;SDS011;15458;53.346;-1.688;2023-07-30T08:20:52;7.30;;;1.35;;
28170;SDS011;15458;53.346;-1.688;2023-07-30T08:23:18;5.55;;;1.15;;
28170;SDS011;15458;53.346;-1.688;2023-07-30T08:25:44;7.50;;;1.25;;
28170;SDS011;15458;53.346;-1.688;2023-07-30T08:28:09;6.13;;;0.95;;
28170;SDS011;15458;53.346;-1.688;2023-07-30T08:30:35;3.88;;;0.70;;
28170;SDS011;15458;53.346;-1.688;2023-07-30T08:33:01;2.05;;;0.90;;
28170;SDS011;15458;53.346;-1.688;2023-07-30T08:35:26;4.72;;;0.98;;
28170;SDS011;15458;53.346;-1.688;2023-07-30T08:37:53;7.45;;;1.35;;
28170;SDS011;15458;53.346;-1.688;2023-07-30T08:40:20;7.20;;;1.23;;
28170;SDS011;15458;53.346;-1.688;2023-07-30T08:42:48;7.65;;;0.88;;
28170;SDS011;15458;53.346;-1.688;2023-07-30T08:45:17;12.32;;;1.10;;
28170;SDS011;15458;53.346;-1.688;2023-07-30T08:47:43;7.03;;;1.45;;
28170;SDS011;15458;53.346;-1.688;2023-07-30T08:50:10;4.65;;;1.33;;
28170;SDS011;15458;53.346;-1.688;2023-07-30T08:52:35;9.07;;;1.67;;
28170;SDS011;15458;53.346;-1.688;2023-07-30T08:55:02;6.05;;;0.82;;
28170;SDS011;15458;53.346;-1.688;2023-07-30T08:57:29;7.03;;;0.90;;
28170;SDS011;15458;53.346;-1.688;2023-07-30T09:00:02;6.30;;;1.17;;
28170;SDS011;15458;53.346;-1.688;2023-07-30T09:02:41;7.70;;;1.10;;
28170;SDS011;15458;53.346;-1.688;2023-07-30T09:05:11;9.40;;;1.30;;
28170;SDS011;15458;53.346;-1.688;2023-07-30T09:07:37;3.83;;;0.93;;
28170;SDS011;15458;53.346;-1.688;2023-07-30T09:10:03;4.68;;;1.23;;
28170;SDS011;15458;53.346;-1.688;2023-07-30T09:12:32;9.25;;;1.27;;
28170;SDS011;15458;53.346;-1.688;2023-07-30T09:14:59;4.28;;;1.38;;
28170;SDS011;15458;53.346;-1.688;2023-07-30T09:17:25;6.22;;;1.48;;
28170;SDS011;15458;53.346;-1.688;2023-07-30T09:19:51;6.10;;;0.75;;
28170;SDS011;15458;53.346;-1.688;2023-07-30T09:22:27;7.43;;;1.35;;
28170;SDS011;15458;53.346;-1.688;2023-07-30T09:24:56;3.53;;;0.85;;
28170;SDS011;15458;53.346;-1.688;2023-07-30T09:27:24;4.00;;;0.85;;
28170;SDS011;15458;53.346;-1.688;2023-07-30T09:29:55;4.13;;;0.77;;
28170;SDS011;15458;53.346;-1.688;2023-07-30T09:32:28;3.38;;;0.90;;
28170;SDS011;15458;53.346;-1.688;2023-07-30T09:34:55;3.65;;;0.95;;
28170;SDS011;15458;53.346;-1.688;2023-07-30T09:37:40;4.00;;;0.95;;
28170;SDS011;15458;53.346;-1.688;2023-07-30T09:40:10;4.13;;;0.98;;
28170;SDS011;15458;53.346;-1.688;2023-07-30T09:42:38;6.43;;;0.95;;
28170;SDS011;15458;53.346;-1.688;2023-07-30T09:45:07;9.57;;;0.80;;
28170;SDS011;15458;53.346;-1.688;2023-07-30T09:47:41;6.55;;;1.73;;
28170;SDS011;15458;53.346;-1.688;2023-07-30T09:52:37;6.57;;;0.82;;
28170;SDS011;15458;53.346;-1.688;2023-07-30T09:55:05;4.32;;;0.98;;
28170;SDS011;15458;53.346;-1.688;2023-07-30T09:57:32;2.15;;;0.50;;
28170;SDS011;15458;53.346;-1.688;2023-07-30T09:59:58;7.22;;;1.10;;
28170;SDS011;15458;53.346;-1.688;2023-07-30T10:02:24;6.93;;;1.10;;
28170;SDS011;15458;53.346;-1.688;2023-07-30T10:04:53;2.47;;;0.60;;
28170;SDS011;15458;53.346;-1.688;2023-07-30T10:07:22;3.75;;;0.73;;
28170;SDS011;15458;53.346;-1.688;2023-07-30T10:09:50;6.05;;;0.98;;
28170;SDS011;15458;53.346;-1.688;2023-07-30T10:12:24;3.17;;;0.75;;
28170;SDS011;15458;53.346;-1.688;2023-07-30T10:14:53;4.10;;;0.73;;
28170;SDS011;15458;53.346;-1.688;2023-07-30T10:17:19;7.00;;;0.95;;
28170;SDS011;15458;53.346;-1.688;2023-07-30T10:19:49;1.15;;;0.50;;
28170;SDS011;15458;53.346;-1.688;2023-07-30T10:24:57;4.15;;;0.70;;
28170;SDS011;15458;53.346;-1.688;2023-07-30T10:27:25;1.42;;;0.60;;
28170;SDS011;15458;53.346;-1.688;2023-07-30T10:30:11;3.83;;;0.73;;
28170;SDS011;15458;53.346;-1.688;2023-07-30T10:32:42;3.47;;;0.60;;
28170;SDS011;15458;53.346;-1.688;2023-07-30T10:35:42;6.60;;;1.40;;
28170;SDS011;15458;53.346;-1.688;2023-07-30T10:43:40;2.85;;;0.60;;
28170;SDS011;15458;53.346;-1.688;2023-07-30T10:46:10;2.95;;;0.55;;
28170;SDS011;15458;53.346;-1.688;2023-07-30T10:48:41;3.75;;;0.65;;
28170;SDS011;15458;53.346;-1.688;2023-07-30T10:51:09;4.15;;;0.82;;
28170;SDS011;15458;53.346;-1.688;2023-07-30T10:53:36;4.53;;;1.00;;
28170;SDS011;15458;53.346;-1.688;2023-07-30T10:56:03;0.75;;;0.40;;
28170;SDS011;15458;53.346;-1.688;2023-07-30T10:58:30;3.28;;;0.93;;
28170;SDS011;15458;53.346;-1.688;2023-07-30T11:00:57;3.75;;;1.17;;
28170;SDS011;15458;53.346;-1.688;2023-07-30T11:03:26;1.08;;;0.50;;
28170;SDS011;15458;53.346;-1.688;2023-07-30T11:05:52;5.43;;;0.80;;
28170;SDS011;15458;53.346;-1.688;2023-07-30T11:08:18;4.57;;;0.65;;
28170;SDS011;15458;53.346;-1.688;2023-07-30T11:10:44;4.65;;;1.00;;
28170;SDS011;15458;53.346;-1.688;2023-07-30T11:13:12;5.95;;;1.50;;
28170;SDS011;15458;53.346;-1.688;2023-07-30T11:15:41;4.72;;;1.90;;
28170;SDS011;15458;53.346;-1.688;2023-07-30T11:18:08;2.45;;;1.10;;
28170;SDS011;15458;53.346;-1.688;2023-07-30T11:20:34;4.13;;;0.68;;
28170;SDS011;15458;53.346;-1.688;2023-07-30T11:23:00;3.78;;;1.27;;
28170;SDS011;15458;53.346;-1.688;2023-07-30T11:25:26;3.65;;;1.10;;
28170;SDS011;15458;53.346;-1.688;2023-07-30T11:27:51;3.15;;;1.00;;
28170;SDS011;15458;53.346;-1.688;2023-07-30T11:30:17;3.28;;;1.10;;
28170;SDS011;15458;53.346;-1.688;2023-07-30T11:32:44;5.03;;;1.17;;
28170;SDS011;15458;53.346;-1.688;2023-07-30T11:35:11;6.63;;;1.42;;
28170;SDS011;15458;53.346;-1.688;2023-07-30T11:37:38;4.20;;;1.30;;
28170;SDS011;15458;53.346;-1.688;2023-07-30T11:40:14;4.68;;;1.48;;
28170;SDS011;15458;53.346;-1.688;2023-07-30T11:42:39;6.18;;;1.08;;
28170;SDS011;15458;53.346;-1.688;2023-07-30T11:45:20;6.03;;;0.77;;
28170;SDS011;15458;53.346;-1.688;2023-07-30T11:47:47;4.50;;;0.77;;
28170;SDS011;15458;53.346;-1.688;2023-07-30T11:50:14;3.80;;;0.98;;
28170;SDS011;15458;53.346;-1.688;2023-07-30T11:52:55;3.55;;;0.70;;
28170;SDS011;15458;53.346;-1.688;2023-07-30T11:55:22;2.22;;;0.52;;
28170;SDS011;15458;53.346;-1.688;2023-07-30T11:57:49;2.40;;;0.60;;
28170;SDS011;15458;53.346;-1.688;2023-07-30T12:00:16;3.70;;;0.40;;
28170;SDS011;15458;53.346;-1.688;2023-07-30T12:02:46;3.22;;;0.68;;
28170;SDS011;15458;53.346;-1.688;2023-07-30T12:05:12;4.07;;;0.50;;
28170;SDS011;15458;53.346;-1.688;2023-07-30T12:07:41;1.42;;;0.40;;
28170;SDS011;15458;53.346;-1.688;2023-07-30T12:10:10;4.05;;;0.73;;
28170;SDS011;15458;53.346;-1.688;2023-07-30T12:12:46;1.30;;;0.50;;
28170;SDS011;15458;53.346;-1.688;2023-07-30T12:15:18;5.05;;;0.80;;
28170;SDS011;15458;53.346;-1.688;2023-07-30T12:17:43;1.83;;;0.60;;
28170;SDS011;15458;53.346;-1.688;2023-07-30T12:20:10;4.95;;;1.17;;
28170;SDS011;15458;53.346;-1.688;2023-07-30T12:22:36;4.13;;;1.30;;
28170;SDS011;15458;53.346;-1.688;2023-07-30T12:25:03;2.53;;;0.70;;
28170;SDS011;15458;53.346;-1.688;2023-07-30T12:27:29;1.90;;;0.50;;
28170;SDS011;15458;53.346;-1.688;2023-07-30T12:29:55;4.15;;;0.60;;
28170;SDS011;15458;53.346;-1.688;2023-07-30T12:32:21;5.97;;;1.30;;
28170;SDS011;15458;53.346;-1.688;2023-07-30T12:34:46;3.60;;;0.60;;
28170;SDS011;15458;53.346;-1.688;2023-07-30T12:37:12;2.60;;;0.63;;
28170;SDS011;15458;53.346;-1.688;2023-07-30T12:39:38;3.67;;;0.90;;
28170;SDS011;15458;53.346;-1.688;2023-07-30T12:42:03;2.60;;;0.90;;
28170;SDS011;15458;53.346;-1.688;2023-07-30T12:44:29;2.85;;;0.60;;
28170;SDS011;15458;53.346;-1.688;2023-07-30T12:46:55;6.35;;;0.52;;
28170;SDS011;15458;53.346;-1.688;2023-07-30T12:49:20;3.53;;;1.10;;
28170;SDS011;15458;53.346;-1.688;2023-07-30T12:51:47;3.92;;;0.65;;
28170;SDS011;15458;53.346;-1.688;2023-07-30T12:54:13;4.70;;;0.88;;
28170;SDS011;15458;53.346;-1.688;2023-07-30T12:56:38;4.25;;;1.00;;
28170;SDS011;15458;53.346;-1.688;2023-07-30T12:59:04;2.70;;;0.45;;
28170;SDS011;15458;53.346;-1.688;2023-07-30T13:01:30;2.35;;;0.50;;
28170;SDS011;15458;53.346;-1.688;2023-07-30T13:03:55;1.95;;;0.60;;
28170;SDS011;15458;53.346;-1.688;2023-07-30T13:06:21;2.00;;;0.32;;
28170;SDS011;15458;53.346;-1.688;2023-07-30T13:08:47;5.47;;;0.60;;
28170;SDS011;15458;53.346;-1.688;2023-07-30T13:11:12;3.38;;;0.63;;
28170;SDS011;15458;53.346;-1.688;2023-07-30T13:13:38;3.20;;;0.52;;
28170;SDS011;15458;53.346;-1.688;2023-07-30T13:16:04;2.15;;;0.68;;
28170;SDS011;15458;53.346;-1.688;2023-07-30T13:18:30;6.22;;;1.00;;
28170;SDS011;15458;53.346;-1.688;2023-07-30T13:20:56;6.20;;;1.52;;
28170;SDS011;15458;53.346;-1.688;2023-07-30T13:23:21;1.85;;;0.57;;
28170;SDS011;15458;53.346;-1.688;2023-07-30T13:25:50;6.85;;;0.90;;
28170;SDS011;15458;53.346;-1.688;2023-07-30T13:28:15;4.88;;;1.05;;
28170;SDS011;15458;53.346;-1.688;2023-07-30T13:30:41;1.30;;;0.60;;
28170;SDS011;15458;53.346;-1.688;2023-07-30T13:33:07;2.78;;;0.80;;
28170;SDS011;15458;53.346;-1.688;2023-07-30T13:35:32;4.78;;;0.95;;
28170;SDS011;15458;53.346;-1.688;2023-07-30T13:37:58;3.58;;;0.70;;
28170;SDS011;15458;53.346;-1.688;2023-07-30T13:40:24;3.88;;;0.85;;
28170;SDS011;15458;53.346;-1.688;2023-07-30T13:42:54;1.88;;;0.68;;
28170;SDS011;15458;53.346;-1.688;2023-07-30T13:45:19;2.97;;;0.93;;
28170;SDS011;15458;53.346;-1.688;2023-07-30T13:47:50;2.35;;;0.70;;
28170;SDS011;15458;53.346;-1.688;2023-07-30T13:50:16;4.65;;;0.85;;
28170;SDS011;15458;53.346;-1.688;2023-07-30T13:52:43;5.25;;;1.60;;
28170;SDS011;15458;53.346;-1.688;2023-07-30T13:55:08;5.75;;;0.95;;
28170;SDS011;15458;53.346;-1.688;2023-07-30T13:57:34;6.25;;;0.73;;
28170;SDS011;15458;53.346;-1.688;2023-07-30T14:00:00;6.32;;;0.85;;
28170;SDS011;15458;53.346;-1.688;2023-07-30T14:02:25;4.22;;;1.35;;
28170;SDS011;15458;53.346;-1.688;2023-07-30T14:04:51;4.80;;;1.35;;
28170;SDS011;15458;53.346;-1.688;2023-07-30T14:07:17;5.95;;;1.00;;
28170;SDS011;15458;53.346;-1.688;2023-07-30T14:09:42;3.65;;;0.90;;
28170;SDS011;15458;53.346;-1.688;2023-07-30T14:12:08;3.45;;;0.60;;
28170;SDS011;15458;53.346;-1.688;2023-07-30T14:14:34;4.95;;;0.80;;
28170;SDS011;15458;53.346;-1.688;2023-07-30T14:17:00;3.42;;;1.00;;
28170;SDS011;15458;53.346;-1.688;2023-07-30T14:19:31;6.78;;;1.10;;
28170;SDS011;15458;53.346;-1.688;2023-07-30T14:21:57;7.15;;;1.30;;
28170;SDS011;15458;53.346;-1.688;2023-07-30T14:24:23;3.92;;;1.15;;
28170;SDS011;15458;53.346;-1.688;2023-07-30T14:26:49;5.57;;;1.40;;
28170;SDS011;15458;53.346;-1.688;2023-07-30T14:29:14;5.07;;;1.02;;
28170;SDS011;15458;53.346;-1.688;2023-07-30T14:31:40;7.00;;;1.60;;
28170;SDS011;15458;53.346;-1.688;2023-07-30T14:34:06;4.53;;;1.20;;
28170;SDS011;15458;53.346;-1.688;2023-07-30T14:36:31;6.13;;;1.20;;
28170;SDS011;15458;53.346;-1.688;2023-07-30T14:38:57;7.45;;;1.85;;